New Haven, CT current weather conditions

sailwx.info

Wind from 324 at 14 knots gusting 22

Air temperature 4.4° C
Water temperature 5.0° C

Last reported at 2019-Dec-05 18:48 UTC.
Time now 2019-Dec-05 19:18 UTC

Location: N 41°17' W 072°54'.
View on Google Maps.

See reports from other nearby stations

  
Tides and Currents Weather Stations Pressure Air Temp Water Temp Dewpoint Dewpoint Depression Visibility Wind Speed Wind Dir Waves Ship Positions
date/time (UTC)wind fromknots sea level pressurealtimeterstation pressurevisibilityair tempwater tempwave heightnotes
2019-Dec-05 18:48 324 14 gusting 22 4.4 5.0
2019-Dec-05 18:42 311 14 gusting 20 4.4 5.0
2019-Dec-05 18:36 304 15 gusting 19 4.4 5.0
2019-Dec-05 18:30 302 11 gusting 15 4.4 5.0
2019-Dec-05 18:24 314 12 gusting 15 4.4 5.0
2019-Dec-05 18:18 303 11 gusting 14 5.0 5.0
2019-Dec-05 18:12 311 14 gusting 17 4.4 5.0
2019-Dec-05 18:06 304 11 gusting 16 4.4 5.0
2019-Dec-05 18:00 307 12 gusting 19 4.4 5.0
2019-Dec-05 17:48 309 8 gusting 11 4.4 5.0
2019-Dec-05 17:42 322 11 gusting 16 4.4 5.0
2019-Dec-05 17:36 325 12 gusting 15 4.4 5.0
2019-Dec-05 17:30 328 14 gusting 19 4.4 5.0
2019-Dec-05 17:24 321 14 gusting 17 4.4 5.0
2019-Dec-05 17:18 313 13 gusting 16 5.0 5.0
2019-Dec-05 17:12 306 13 gusting 20 5.0 5.0
2019-Dec-05 17:06 324 13 gusting 15 5.0 5.0
2019-Dec-05 17:00 315 10 gusting 13 5.0 5.0
2019-Dec-05 16:54 318 12 gusting 14 5.0 5.0
2019-Dec-05 16:48 310 10 gusting 13 5.0 5.0
2019-Dec-05 16:42 317 10 gusting 12 5.0 5.0
2019-Dec-05 16:36 322 9 gusting 13 5.6 5.0
2019-Dec-05 16:30 345 7 gusting 15 5.6 5.0
2019-Dec-05 16:24 331 13 gusting 16 5.6 5.0
2019-Dec-05 16:18 302 11 gusting 16 5.6 5.0
2019-Dec-05 16:12 304 13 gusting 16 5.6 5.0
2019-Dec-05 16:06 288 13 gusting 18 5.6 5.0
2019-Dec-05 16:00 300 13 gusting 18 5.6 5.0
2019-Dec-05 15:54 321 13 gusting 19 5.6 5.0
2019-Dec-05 15:48 294 13 gusting 14 5.0 5.0
2019-Dec-05 15:42 316 11 gusting 19 5.0 5.0
2019-Dec-05 15:36 301 9 gusting 14 5.0 5.0
2019-Dec-05 15:30 308 11 gusting 18 5.0 5.0
2019-Dec-05 15:24 305 10 gusting 14 5.0 5.0
2019-Dec-05 15:18 312 11 gusting 14 4.4 5.0
2019-Dec-05 15:12 306 10 gusting 12 4.4 5.0
2019-Dec-05 15:06 311 9 gusting 11 4.4 5.0
2019-Dec-05 15:00 315 10 gusting 15 4.4 5.0
2019-Dec-05 14:54 316 12 gusting 14 4.4 5.0
2019-Dec-05 14:48 311 12 gusting 14 4.4 5.0
2019-Dec-05 14:42 316 11 gusting 14 4.4 5.0
2019-Dec-05 14:36 316 12 gusting 18 4.4 5.0
2019-Dec-05 14:30 311 14 gusting 22 4.4 5.0
2019-Dec-05 14:24 313 10 gusting 14 4.4 5.0
2019-Dec-05 14:18 309 13 gusting 14 3.9 5.0
2019-Dec-05 14:12 305 11 gusting 15 3.9 5.0
2019-Dec-05 14:06 305 11 gusting 14 3.3 5.0
2019-Dec-05 14:00 304 11 gusting 13 3.3 5.0
2019-Dec-05 13:54 306 7 gusting 12 3.3 5.0
2019-Dec-05 13:48 308 7 gusting 11 2.8 5.0
2019-Dec-05 13:42 308 6 gusting 7 2.8 5.0
2019-Dec-05 13:36 299 4 gusting 6 2.8 5.0
2019-Dec-05 13:30 293 5 gusting 7 2.8 5.0
2019-Dec-05 13:24 291 5 gusting 6 2.8 5.0
2019-Dec-05 13:18 276 2 gusting 4 2.8 5.0
2019-Dec-05 13:12 277 4 gusting 6 2.8 5.0
2019-Dec-05 13:06 283 4 gusting 5 2.8 5.0
2019-Dec-05 13:00 285 3 gusting 4 2.8 5.0
2019-Dec-05 12:54 286 2.8 5.0
2019-Dec-05 12:48 268 2 gusting 5 2.2 5.0
2019-Dec-05 12:42 256 1 gusting 3 2.2 5.0
2019-Dec-05 12:36 271 2 gusting 4 2.2 5.0
2019-Dec-05 12:30 302 2 gusting 3 2.2 5.0
2019-Dec-05 12:24 308 2 gusting 4 2.2 5.0
2019-Dec-05 12:18 292 2 gusting 6 2.2 5.0
2019-Dec-05 12:12 314 5 gusting 6 2.2 5.0
2019-Dec-05 12:06 306 5 gusting 7 2.2 5.0
2019-Dec-05 12:00 299 4 gusting 5 2.2 5.0
2019-Dec-05 11:54 293 4 gusting 6 2.2 5.0
2019-Dec-05 11:48 300 3 gusting 4 2.2 5.0
2019-Dec-05 11:42 315 3 gusting 5 2.2 5.0
2019-Dec-05 11:36 312 2 gusting 4 1.7 5.0
2019-Dec-05 11:30 311 3 gusting 5 1.7 5.0
2019-Dec-05 11:24 306 3 gusting 6 1.7 5.0
2019-Dec-05 11:18 307 4 gusting 6 1.7 5.0
2019-Dec-05 11:12 305 3 gusting 5 1.7 5.0
2019-Dec-05 11:06 322 4 gusting 5 1.7 5.0
2019-Dec-05 11:00 336 3 gusting 5 1.7 5.0
2019-Dec-05 10:54 337 3 gusting 6 1.7 5.0
2019-Dec-05 10:48 327 4 gusting 5 1.7 5.0
2019-Dec-05 10:42 328 3 gusting 4 1.7 5.0
2019-Dec-05 10:36 329 2 gusting 3 1.7 5.0
2019-Dec-05 10:30 311 3 gusting 4 1.7 5.0
2019-Dec-05 10:24 334 1 gusting 2 1.7 5.0
2019-Dec-05 10:18 317 1 gusting 3 1.7 5.0
2019-Dec-05 10:12 295 1.7 5.0
2019-Dec-05 10:06 286 0 gusting 1 1.7 5.0
2019-Dec-05 10:00 288 0 gusting 1 1.7 5.0
2019-Dec-05 09:54 247 1.7 5.0
2019-Dec-05 09:48 304 0 gusting 1 1.7 5.0
2019-Dec-05 09:42 277 0 gusting 1 1.7 5.0
2019-Dec-05 09:36 330 1.7 5.0
2019-Dec-05 09:30 291 1.7 5.0
2019-Dec-05 09:24 301 0 gusting 1 1.7 5.0
2019-Dec-05 09:18 298 1 gusting 2 1.7 5.0
2019-Dec-05 09:12 299 1 gusting 2 1.7 5.0
2019-Dec-05 09:06 317 1 gusting 2 1.7 5.0
2019-Dec-05 09:00 301 1 gusting 2 1.7 5.0
2019-Dec-05 08:54 292 0 gusting 1 1.7 5.0
2019-Dec-05 08:48 297 1 gusting 3 1.7 5.0
2019-Dec-05 08:42 283 1 gusting 3 1.7 5.0
2019-Dec-05 08:36 290 2 gusting 3 1.7 5.0
2019-Dec-05 08:30 306 2 gusting 3 1.7 5.0
2019-Dec-05 08:24 307 1.7 5.0
2019-Dec-05 08:18 306 1 gusting 3 1.7 5.0
2019-Dec-05 08:12 291 2 gusting 3 1.7 5.0
2019-Dec-05 08:06 287 3 gusting 4 1.7 5.0
2019-Dec-05 08:00 281 3 gusting 5 1.7 5.0
2019-Dec-05 07:54 271 4 gusting 5 1.7 5.0
2019-Dec-05 07:48 274 2 gusting 3 2.2 5.0
2019-Dec-05 07:42 282 1 gusting 3 1.7 5.0
2019-Dec-05 07:36 283 2 gusting 3 1.7 5.0
2019-Dec-05 07:30 284 2 gusting 4 1.7 5.0
2019-Dec-05 07:24 274 3 gusting 4 1.7 5.0
2019-Dec-05 07:18 274 3 gusting 4 1.7 5.0
2019-Dec-05 07:12 281 3 gusting 5 1.7 5.0
2019-Dec-05 07:06 283 3 gusting 5 1.7 5.0
2019-Dec-05 07:00 275 3 gusting 4 1.7 5.0
2019-Dec-05 06:54 273 3 gusting 4 1.7 5.0
2019-Dec-05 06:48 285 4 gusting 5 1.7 5.0
2019-Dec-05 06:42 276 4 gusting 5 1.7 5.0
2019-Dec-05 06:36 263 4 gusting 5 1.7 5.0
2019-Dec-05 06:30 264 3 gusting 5 1.7 5.0
2019-Dec-05 06:24 272 3 gusting 5 1.7 5.0
2019-Dec-05 06:18 270 2 gusting 4 1.7 5.0
2019-Dec-05 06:12 267 3 gusting 4 1.7 5.0
2019-Dec-05 06:06 275 1 gusting 2 1.7 5.0
2019-Dec-05 06:00 271 1 gusting 4 1.7 5.0
2019-Dec-05 05:54 258 2 gusting 3 1.7 5.0
2019-Dec-05 05:48 262 2 gusting 5 1.7 5.0
2019-Dec-05 05:42 254 4 gusting 5 1.7 5.0
2019-Dec-05 05:36 255 3 gusting 5 1.7 5.0
2019-Dec-05 05:30 265 4 gusting 6 1.7 5.0
2019-Dec-05 05:24 265 4 gusting 5 1.7 5.0
2019-Dec-05 05:18 269 3 gusting 5 1.7 5.0
2019-Dec-05 05:12 270 4 gusting 5 1.7 5.0
2019-Dec-05 05:06 260 3 gusting 4 1.7 5.0
2019-Dec-05 05:00 266 3 gusting 4 1.7 5.0
2019-Dec-05 04:54 259 3 gusting 6 1.7 5.0
2019-Dec-05 04:48 252 4 gusting 6 2.2 5.0
2019-Dec-05 04:42 260 4 gusting 6 2.2 5.0
2019-Dec-05 04:36 245 4 gusting 6 2.2 5.0
2019-Dec-05 04:30 256 4 gusting 6 1.7 5.0
2019-Dec-05 04:24 252 4 gusting 6 1.7 5.0
2019-Dec-05 04:18 263 4 gusting 5 1.7 5.0
2019-Dec-05 04:12 268 3 gusting 4 1.7 5.0
2019-Dec-05 04:06 274 3 gusting 3 1.7 5.0
2019-Dec-05 04:00 272 4 gusting 5 1.7 5.0
2019-Dec-05 03:54 270 4 gusting 5 1.7 5.0
2019-Dec-05 03:48 269 3 gusting 5 1.7 5.0
2019-Dec-05 03:42 266 4 gusting 5 1.7 5.0
2019-Dec-05 03:36 256 3 gusting 4 2.2 5.0
2019-Dec-05 03:30 264 2 gusting 4 2.2 5.0
2019-Dec-05 03:24 251 1 gusting 3 2.2 5.0
2019-Dec-05 03:18 260 1 gusting 3 2.2 5.0
2019-Dec-05 03:12 254 1 gusting 3 2.2 5.0
2019-Dec-05 03:06 241 2 gusting 5 2.2 5.0
2019-Dec-05 03:00 259 3 gusting 4 2.2 5.0
2019-Dec-05 02:54 259 1 gusting 3 2.2 5.0
2019-Dec-05 02:48 267 2 gusting 3 2.2 5.0
2019-Dec-05 02:42 237 3 gusting 4 2.2 5.0
2019-Dec-05 02:36 249 2 gusting 5 2.2 5.0
2019-Dec-05 02:30 259 2 gusting 4 2.2 5.0
2019-Dec-05 02:24 268 2 gusting 3 2.2 5.0
2019-Dec-05 02:18 279 2 gusting 4 2.2 5.0
2019-Dec-05 02:12 293 3 gusting 4 2.2 5.0
2019-Dec-05 02:06 287 3 gusting 3 2.2 5.0
2019-Dec-05 02:00 261 1 gusting 3 2.2 5.0
2019-Dec-05 01:54 250 0 gusting 1 2.2 5.0
2019-Dec-05 01:48 270 1 gusting 1 2.2 5.0
2019-Dec-05 01:42 270 1 gusting 1 2.2 5.0
2019-Dec-05 01:36 298 2 gusting 4 2.2 5.0
2019-Dec-05 01:30 306 2 gusting 2 2.2 5.0
2019-Dec-05 01:24 308 2 gusting 3 2.2 5.0
2019-Dec-05 01:18 301 1 gusting 4 2.2 5.0
2019-Dec-05 01:12 321 3 gusting 6 2.2 5.0
2019-Dec-05 01:06 324 3 gusting 5 2.2 5.0
2019-Dec-05 01:00 307 3 gusting 5 2.8 5.0
2019-Dec-05 00:54 304 4 gusting 6 2.8 5.0
2019-Dec-05 00:48 290 3 gusting 6 2.8 5.0
2019-Dec-05 00:42 292 6 gusting 7 2.8 5.0
2019-Dec-05 00:36 290 6 gusting 9 2.8 5.0
2019-Dec-05 00:30 295 6 gusting 10 2.8 5.0
2019-Dec-05 00:24 290 7 gusting 10 2.8 5.0
2019-Dec-05 00:18 289 7 gusting 10 2.8 5.0
2019-Dec-05 00:12 289 7 gusting 11 2.8 5.0
2019-Dec-05 00:06 289 7 gusting 10 2.8 5.0
2019-Dec-05 00:00 286 7 gusting 9 2.8 5.0
2019-Dec-04 23:54 288 7 gusting 9 2.8 5.0
2019-Dec-04 23:48 286 6 gusting 8 2.8 5.0
2019-Dec-04 23:36 292 6 gusting 10 2.8 5.0
2019-Dec-04 23:30 289 7 gusting 9 2.8 5.0
2019-Dec-04 23:24 287 7 gusting 9 2.8 5.0
2019-Dec-04 23:18 288 7 gusting 10 2.8 5.0
2019-Dec-04 23:12 287 6 gusting 9 2.8 5.0
2019-Dec-04 23:06 287 7 gusting 10 2.8 5.0
2019-Dec-04 23:00 274 6 gusting 9 3.3 5.0
2019-Dec-04 22:54 289 6 gusting 8 3.3 5.0
2019-Dec-04 22:48 290 6 gusting 8 3.3 5.0
2019-Dec-04 22:42 289 8 gusting 10 3.3 5.0
2019-Dec-04 22:36 291 6 gusting 8 3.3 5.0
2019-Dec-04 22:30 291 6 gusting 8 3.3 5.0
2019-Dec-04 22:24 288 6 gusting 7 3.3 5.0
2019-Dec-04 22:18 285 7 gusting 9 3.3 5.0
2019-Dec-04 22:12 280 7 gusting 8 3.3 5.0
2019-Dec-04 22:06 288 6 gusting 8 3.3 5.0
2019-Dec-04 22:00 289 6 gusting 8 3.3 5.0
2019-Dec-04 21:54 284 6 gusting 8 3.3 5.0
2019-Dec-04 21:48 289 7 gusting 8 3.3 5.0
2019-Dec-04 21:42 273 6 gusting 8 3.3 5.0
2019-Dec-04 21:36 274 6 gusting 7 3.3 5.0
2019-Dec-04 21:30 283 6 gusting 8 3.3 5.0
2019-Dec-04 21:24 290 6 gusting 9 3.3 5.0
2019-Dec-04 21:18 289 6 gusting 7 3.3 5.0
2019-Dec-04 21:12 282 6 gusting 8 3.9 5.0
2019-Dec-04 21:06 285 6 gusting 9 3.9 5.0
2019-Dec-04 21:00 279 6 gusting 10 3.9 5.0
2019-Dec-04 20:54 278 6 gusting 7 3.9 5.0
2019-Dec-04 20:48 280 6 gusting 8 3.9 5.0
2019-Dec-04 20:42 278 6 gusting 9 3.9 5.0
2019-Dec-04 20:36 274 6 gusting 7 3.9 5.0
2019-Dec-04 20:30 282 6 gusting 6 3.9 5.0
2019-Dec-04 20:24 263 6 gusting 7 3.9 5.0
2019-Dec-04 20:18 278 6 gusting 7 3.9 5.0
2019-Dec-04 20:12 278 6 gusting 9 3.9 5.0
2019-Dec-04 20:06 269 5 gusting 7 3.9 5.0
2019-Dec-04 20:00 264 5 gusting 7 3.9 5.0
2019-Dec-04 19:54 268 4 gusting 6 3.3 5.0
2019-Dec-04 19:48 259 5 gusting 7 3.3 5.0
2019-Dec-04 19:42 264 6 gusting 7 3.3 5.0
2019-Dec-04 19:36 261 6 gusting 8 3.3 5.0
2019-Dec-04 19:30 262 6 gusting 7 3.3 5.0
2019-Dec-04 19:24 267 6 gusting 6 3.3 5.0
2019-Dec-04 19:18 268 4 gusting 6 3.3 5.0
2019-Dec-04 19:12 265 3 gusting 6 3.3 5.0
2019-Dec-04 19:06 265 4 gusting 6 3.3 5.0
2019-Dec-04 19:00 281 5 gusting 6 3.3 5.0
2019-Dec-04 18:54 282 5 gusting 8 3.3 5.0
2019-Dec-04 18:48 279 6 gusting 7 3.3 5.0
2019-Dec-04 18:42 291 6 gusting 9 3.3 5.0
2019-Dec-04 18:36 289 7 gusting 9 3.3 5.0
2019-Dec-04 18:30 283 7 gusting 9 3.3 5.0
2019-Dec-04 18:24 284 6 gusting 8 2.8 5.0
2019-Dec-04 18:18 282 4 gusting 6 2.8 5.0
2019-Dec-04 18:12 282 5 gusting 6 2.8 5.0
2019-Dec-04 18:06 285 4 gusting 6 2.8 5.0
2019-Dec-04 18:00 291 5 gusting 7 2.8 5.0
2019-Dec-04 17:54 274 6 gusting 7 2.8 5.0
2019-Dec-04 17:48 279 4 gusting 6 2.8 5.0
2019-Dec-04 17:42 285 6 gusting 9 2.8 4.4
2019-Dec-04 17:36 281 5 gusting 7 2.8 4.4
2019-Dec-04 17:30 296 6 gusting 9 2.8 4.4
2019-Dec-04 17:24 283 4 gusting 6 2.8 4.4
2019-Dec-04 17:18 290 5 gusting 7 2.8 4.4
2019-Dec-04 17:12 286 5 gusting 9 2.8 4.4
2019-Dec-04 17:06 284 6 gusting 6 2.8 4.4
2019-Dec-04 17:00 284 5 gusting 6 2.8 4.4
2019-Dec-04 16:54 280 4 gusting 6 2.2 4.4
2019-Dec-04 16:48 269 2 gusting 5 2.2 4.4
2019-Dec-04 16:42 269 3 gusting 4 2.2 4.4
2019-Dec-04 16:36 272 1 gusting 3 2.2 4.4
2019-Dec-04 16:30 269 2 gusting 5 2.2 4.4
2019-Dec-04 16:24 266 3 gusting 5 1.7 4.4
2019-Dec-04 16:18 285 2 gusting 4 1.7 4.4
2019-Dec-04 16:12 274 3 gusting 5 1.7 4.4
2019-Dec-04 16:06 291 1.7 4.4
2019-Dec-04 16:00 263 1 gusting 3 1.7 4.4
2019-Dec-04 15:54 318 0 gusting 3 1.7 4.4
2019-Dec-04 15:48 290 2 gusting 5 1.7 5.0
2019-Dec-04 15:42 302 4 gusting 6 1.7 5.0
2019-Dec-04 15:36 288 2 gusting 6 1.1 5.0
2019-Dec-04 15:30 290 3 gusting 5 1.1 5.0
2019-Dec-04 15:24 294 4 gusting 6 1.1 5.0
2019-Dec-04 15:18 300 3 gusting 6 1.1 5.0
2019-Dec-04 15:12 278 2 gusting 5 1.1 5.0
2019-Dec-04 15:06 268 4 gusting 6 1.1 5.0
2019-Dec-04 15:00 275 4 gusting 5 1.1 5.0
2019-Dec-04 14:54 275 3 gusting 6 1.1 5.0
2019-Dec-04 14:48 277 5 gusting 6 0.6 5.0
2019-Dec-04 14:42 274 3 gusting 5 1.1 5.0
2019-Dec-04 14:36 265 3 gusting 4 0.6 5.0
2019-Dec-04 14:30 272 3 gusting 4 0.6 5.0
2019-Dec-04 14:24 267 3 gusting 4 0.6 5.0
2019-Dec-04 14:18 271 2 gusting 4 0.6 5.0
2019-Dec-04 14:12 277 2 gusting 3 0.6 5.0
2019-Dec-04 14:06 276 2 gusting 4 0.6 5.0
2019-Dec-04 14:00 270 2 gusting 4 0.6 5.0
2019-Dec-04 13:54 259 2 gusting 3 0.6 5.0
2019-Dec-04 13:48 263 2 gusting 5 0.6 5.0
2019-Dec-04 13:42 252 3 gusting 5 0.6 5.0
2019-Dec-04 13:36 276 1 gusting 2 0.6 5.6
2019-Dec-04 13:30 252 1 gusting 4 -0.0 5.6
2019-Dec-04 13:24 267 3 gusting 4 -0.0 5.6
2019-Dec-04 13:18 261 1 gusting 2 -0.0 5.6
2019-Dec-04 13:12 287 1 gusting 3 -0.0 5.0
2019-Dec-04 13:06 241 1 gusting 4 -0.0 5.0
2019-Dec-04 13:00 239 3 gusting 4 -0.0 5.0
2019-Dec-04 12:54 256 3 gusting 4 -0.0 5.6
2019-Dec-04 12:48 229 2 gusting 4 -0.0 5.6
2019-Dec-04 12:42 224 2 gusting 3 -0.0 5.6
2019-Dec-04 12:36 248 2 gusting 3 -0.6 5.6
2019-Dec-04 12:30 238 1 gusting 2 -0.0 5.6
2019-Dec-04 12:24 238 1 gusting 2 -0.6 5.6
2019-Dec-04 12:18 253 1 gusting 2 -0.6 5.6
2019-Dec-04 12:12 263 1 gusting 3 -0.6 5.6
2019-Dec-04 12:06 266 2 gusting 4 -0.6 5.6
2019-Dec-04 12:00 267 4 gusting 5 -0.6 5.6
2019-Dec-04 11:54 250 3 gusting 4 -0.6 5.6
2019-Dec-04 11:48 258 2 gusting 4 -0.6 5.6
2019-Dec-04 11:42 252 3 gusting 5 -0.6 5.6
2019-Dec-04 11:36 264 4 gusting 5 -0.6 5.6
2019-Dec-04 11:30 254 5 gusting 7 -0.6 5.6
2019-Dec-04 11:24 250 4 gusting 6 -0.6 5.6
2019-Dec-04 11:18 243 4 gusting 5 -0.6 5.6
2019-Dec-04 11:12 244 3 gusting 4 -0.6 5.6
2019-Dec-04 11:06 219 2 gusting 3 -0.6 5.6
2019-Dec-04 11:00 241 0 gusting 2 -0.6 5.6
2019-Dec-04 10:54 272 1 gusting 2 -0.6 5.6
2019-Dec-04 10:48 300 1 gusting 3 -0.6 5.6
2019-Dec-04 10:42 295 2 gusting 3 -0.6 5.6
2019-Dec-04 10:36 322 2 gusting 2 -0.6 5.6
2019-Dec-04 10:30 312 1 gusting 3 -0.6 5.6
2019-Dec-04 10:24 317 1 gusting 3 -0.6 5.0
2019-Dec-04 10:18 306 3 gusting 5 -0.6 5.0
2019-Dec-04 10:12 296 3 gusting 5 -0.6 5.0
2019-Dec-04 10:06 293 1 gusting 3 -0.6 5.0
2019-Dec-04 10:00 285 0 gusting 3 -0.6 5.0
2019-Dec-04 09:54 312 2 gusting 3 -1.1 5.0
2019-Dec-04 09:48 295 2 gusting 3 -0.6 5.0
2019-Dec-04 09:42 273 2 gusting 3 -0.6 5.0
2019-Dec-04 09:36 307 1 gusting 3 -1.1 5.0
2019-Dec-04 09:30 271 3 gusting 5 -1.1 5.0
2019-Dec-04 09:24 266 4 gusting 5 -1.1 5.0
2019-Dec-04 09:18 258 5 gusting 6 -1.1 5.0
2019-Dec-04 09:12 248 4 gusting 6 -1.1 5.0
2019-Dec-04 09:06 245 4 gusting 5 -0.6 5.0
2019-Dec-04 09:00 273 4 gusting 6 -1.1 5.0
2019-Dec-04 08:54 288 4 gusting 5 -1.1 5.0
2019-Dec-04 08:48 299 4 gusting 6 -1.1 5.0
2019-Dec-04 08:42 303 2 gusting 3 -1.1 5.0
2019-Dec-04 08:36 290 2 gusting 3 -1.1 5.0
2019-Dec-04 08:30 300 2 gusting 5 -1.1 5.0
2019-Dec-04 08:24 287 3 gusting 5 -1.1 5.0
2019-Dec-04 08:18 290 4 gusting 6 -1.1 5.0
2019-Dec-04 08:12 306 3 gusting 6 -1.1 5.0
2019-Dec-04 08:06 310 4 gusting 6 -1.1 5.0
2019-Dec-04 08:00 328 5 gusting 6 -1.1 5.0
2019-Dec-04 07:54 323 4 gusting 6 -1.1 5.0
2019-Dec-04 07:48 304 2 gusting 3 -1.1 5.0
2019-Dec-04 07:42 289 2 gusting 4 -1.1 5.0
2019-Dec-04 07:36 311 3 gusting 5 -1.1 5.0
2019-Dec-04 07:30 327 3 gusting 4 -1.1 5.0
2019-Dec-04 07:24 310 2 gusting 5 -1.1 5.0
2019-Dec-04 07:18 301 4 gusting 6 -0.6 5.0
2019-Dec-04 07:12 338 3 gusting 6 -1.1 5.0
2019-Dec-04 07:06 347 3 gusting 6 -1.1 5.0
2019-Dec-04 07:00 308 0 gusting 5 -1.1 5.0
2019-Dec-04 06:54 325 0 gusting 6 -0.6 5.0
2019-Dec-04 06:48 357 3 gusting 7 -0.6 5.0
2019-Dec-04 06:42 336 5 gusting 8 -1.1 5.0
2019-Dec-04 06:36 334 6 gusting 8 -1.1 5.0
2019-Dec-04 06:30 323 6 gusting 7 -1.1 5.0
2019-Dec-04 06:24 306 5 gusting 6 -0.6 5.0
2019-Dec-04 06:18 303 5 gusting 7 -0.6 5.0
2019-Dec-04 06:12 303 5 gusting 6 -0.6 5.0
2019-Dec-04 06:06 299 4 gusting 6 -0.6 5.0
2019-Dec-04 06:00 295 5 gusting 6 -1.1 5.0
2019-Dec-04 05:54 303 3 gusting 6 -0.6 5.0
2019-Dec-04 05:48 302 5 gusting 6 -0.6 5.0
2019-Dec-04 05:42 309 4 gusting 5 -1.1 5.0
2019-Dec-04 05:36 279 2 gusting 4 -0.6 5.0
2019-Dec-04 05:30 260 3 gusting 5 -0.6 5.0
2019-Dec-04 05:24 282 3 gusting 4 -0.6 5.0
2019-Dec-04 05:18 306 3 gusting 4 -0.6 5.0
2019-Dec-04 05:12 303 3 gusting 5 -0.6 5.0
2019-Dec-04 05:06 304 3 gusting 4 -0.6 5.0
2019-Dec-04 05:00 305 3 gusting 6 -0.6 5.0
2019-Dec-04 04:54 295 5 gusting 6 -0.6 5.0
2019-Dec-04 04:48 284 3 gusting 4 -0.6 5.0
2019-Dec-04 04:42 279 3 gusting 4 -0.6 5.0
2019-Dec-04 04:36 279 2 gusting 5 -0.6 5.0
2019-Dec-04 04:30 284 3 gusting 4 -0.6 5.0
2019-Dec-04 04:24 291 3 gusting 6 -0.6 5.0
2019-Dec-04 04:18 294 5 gusting 6 -0.6 5.0
2019-Dec-04 04:12 293 5 gusting 6 -0.6 5.0
2019-Dec-04 04:06 298 5 gusting 8 -0.6 5.0
2019-Dec-04 04:00 306 6 gusting 8 -0.6 5.0
2019-Dec-04 03:54 292 6 gusting 7 -0.6 5.0
2019-Dec-04 03:48 287 5 gusting 6 -0.0 5.0
2019-Dec-04 03:42 287 5 gusting 6 -0.0 5.0
2019-Dec-04 03:36 292 5 gusting 6 -0.0 5.0
2019-Dec-04 03:30 289 3 gusting 6 -0.0 5.0
2019-Dec-04 03:24 310 6 gusting 7 -0.0 5.0
2019-Dec-04 03:18 302 6 gusting 8 -0.0 5.0
2019-Dec-04 03:12 296 6 gusting 7 -0.0 5.0
2019-Dec-04 03:06 305 6 gusting 8 0.6 5.0
2019-Dec-04 03:00 321 7 gusting 8 0.6 5.0
2019-Dec-04 02:54 305 6 gusting 7 0.6 5.0
2019-Dec-04 02:48 299 3 gusting 6 0.6 5.0
2019-Dec-04 02:42 307 4 gusting 7 0.6 5.0
2019-Dec-04 02:36 316 6 gusting 8 0.6 5.0
2019-Dec-04 02:30 306 5 gusting 6 0.6 5.0
2019-Dec-04 02:24 305 5 gusting 6 0.6 5.0
2019-Dec-04 02:18 317 6 gusting 7 0.6 5.0
2019-Dec-04 02:12 324 5 gusting 7 0.6 5.0
2019-Dec-04 02:06 307 6 gusting 8 0.6 5.0
2019-Dec-04 02:00 308 6 gusting 8 0.6 5.0
2019-Dec-04 01:54 331 6 gusting 9 0.6 5.0
2019-Dec-04 01:48 335 6 gusting 9 1.1 5.0
2019-Dec-04 01:42 332 4 gusting 6 0.6 5.0
2019-Dec-04 01:36 324 6 gusting 6 0.6 5.0
2019-Dec-04 01:30 316 6 gusting 8 1.1 5.0
2019-Dec-04 01:24 347 4 gusting 7 1.1 5.0
2019-Dec-04 01:18 330 5 gusting 7 1.1 5.0
2019-Dec-04 01:12 337 6 gusting 8 1.1 5.0
2019-Dec-04 01:06 342 6 gusting 12 1.1 5.0
2019-Dec-04 01:00 337 8 gusting 10 1.1 5.0
2019-Dec-04 00:54 348 6 gusting 10 1.1 5.0
2019-Dec-04 00:48 336 7 gusting 13 1.1 5.0
2019-Dec-04 00:42 344 9 gusting 13 1.1 5.0
2019-Dec-04 00:36 334 7 gusting 9 1.7 5.0
2019-Dec-04 00:30 341 6 gusting 10 1.7 5.0
2019-Dec-04 00:24 344 4 gusting 11 1.7 5.0
2019-Dec-04 00:18 346 5 gusting 10 1.7 5.0
2019-Dec-04 00:12 346 6 gusting 11 1.7 5.0
2019-Dec-04 00:06 338 7 gusting 10 1.7 5.0
2019-Dec-04 00:00 331 7 gusting 11 1.7 5.0
2019-Dec-03 23:54 341 6 gusting 13 1.7 5.0
2019-Dec-03 23:48 341 6 gusting 14 1.7 5.0
2019-Dec-03 23:42 323 11 gusting 14 1.7 5.0
2019-Dec-03 23:36 332 11 gusting 14 1.7 5.0
2019-Dec-03 23:30 312 7 gusting 13 1.7 5.0
2019-Dec-03 23:24 301 7 gusting 11 1.7 5.0
2019-Dec-03 23:18 310 7 gusting 13 1.7 5.0
2019-Dec-03 23:12 329 9 gusting 13 1.7 5.0
2019-Dec-03 23:06 337 11 gusting 16 1.7 5.0
2019-Dec-03 23:00 345 5 gusting 13 1.7 5.0
2019-Dec-03 22:54 320 10 gusting 13 1.7 5.0
2019-Dec-03 22:48 318 6 gusting 12 1.7 5.0
2019-Dec-03 22:42 307 9 gusting 13 1.7 5.0
2019-Dec-03 22:36 321 10 gusting 13 1.7 5.0
2019-Dec-03 22:30 326 10 gusting 13 1.7 5.0
2019-Dec-03 22:24 326 11 gusting 15 1.7 5.0
2019-Dec-03 22:18 326 8 gusting 11 1.7 5.0
2019-Dec-03 22:12 326 10 gusting 13 1.7 5.0
2019-Dec-03 22:06 320 10 gusting 14 1.7 5.0
2019-Dec-03 22:00 327 13 gusting 17 1.7 5.0
2019-Dec-03 21:54 315 13 gusting 16 2.2 5.0
2019-Dec-03 21:48 324 13 gusting 18 2.2 5.0
2019-Dec-03 21:42 322 13 gusting 16 2.2 5.0
2019-Dec-03 21:36 322 14 gusting 18 2.2 5.0
2019-Dec-03 21:30 332 11 gusting 16 2.2 5.6
2019-Dec-03 21:24 316 14 gusting 19 2.2 5.6
2019-Dec-03 21:18 320 16 gusting 19 2.2 5.6
2019-Dec-03 21:12 336 15 gusting 23 2.8 5.6
2019-Dec-03 21:06 339 17 gusting 21 2.8 5.6
2019-Dec-03 21:00 338 15 gusting 21 2.8 5.6
2019-Dec-03 20:54 327 14 gusting 22 2.8 5.6
2019-Dec-03 20:48 335 13 gusting 21 2.8 5.6
2019-Dec-03 20:42 353 9 gusting 19 2.8 5.6
2019-Dec-03 20:36 348 10 gusting 19 2.8 5.6
2019-Dec-03 20:30 340 16 gusting 24 2.8 5.6
2019-Dec-03 20:24 341 14 gusting 19 2.8 5.6
2019-Dec-03 20:18 346 13 gusting 21 2.8 5.6
2019-Dec-03 20:12 342 12 gusting 17 2.8 5.6
2019-Dec-03 20:06 327 12 gusting 17 2.8 5.6
2019-Dec-03 20:00 340 13 gusting 19 2.8 5.6
2019-Dec-03 19:54 333 11 gusting 19 2.8 5.6
2019-Dec-03 19:48 349 10 gusting 18 2.8 5.6
2019-Dec-03 19:42 352 7 gusting 18 2.8 5.6
2019-Dec-03 19:36 350 12 gusting 23 2.8 5.6
2019-Dec-03 19:30 352 8 gusting 18 2.8 5.6
2019-Dec-03 19:24 347 8 gusting 18 2.8 5.6
2019-Dec-03 19:18 359 5 gusting 19 2.2 5.6
2019-Dec-03 19:12 355 8 gusting 16 2.2 5.6
2019-Dec-03 19:06 344 9 gusting 15 2.2 5.6
2019-Dec-03 19:00 351 7 gusting 15 2.2 5.6